<?xml version="1.0" encoding="utf-8"?>
<gpx xmlns:xsi="http://www.w3.org/2001/XMLSchema-instance" xmlns:xsd="http://www.w3.org/2001/XMLSchema" version="1.1" creator="Shapelink.com" xmlns="http://www.topografix.com/GPX/1/1" xmlns:gpxtpx="http://www.garmin.com/xmlschemas/TrackPointExtension/v1">
  <metadata>
    <name>Løping 4.85 km, 2019-01-03</name>
    <desc></desc>
    <author><name>Stefan Östlund</name></author> 
    <time>2019-01-03T10:28:29Z</time>
  </metadata>
  <trk>
    <name>Løping 4.85 km, 2019-01-03</name>
    <trkseg>
      <trkpt lat="36.748463092152" lon="-3.903499696477">
        <ele>34.8</ele>
        <time>2019-01-03T10:28:29Z</time>
      </trkpt>
      <trkpt lat="36.748510449887" lon="-3.903575385034">
        <ele>34.8</ele>
        <time>2019-01-03T10:28:33Z</time>
      </trkpt>
      <trkpt lat="36.748536433777" lon="-3.90359499868">
        <ele>34.6</ele>
        <time>2019-01-03T10:28:35Z</time>
      </trkpt>
      <trkpt lat="36.748571805395" lon="-3.903614947602">
        <ele>34.6</ele>
        <time>2019-01-03T10:28:37Z</time>
      </trkpt>
      <trkpt lat="36.748675573317" lon="-3.903742687758">
        <ele>35</ele>
        <time>2019-01-03T10:28:43Z</time>
      </trkpt>
      <trkpt lat="36.748749334037" lon="-3.903897082356">
        <ele>35</ele>
        <time>2019-01-03T10:28:49Z</time>
      </trkpt>
      <trkpt lat="36.748811695373" lon="-3.904051393135">
        <ele>34.4</ele>
        <time>2019-01-03T10:28:55Z</time>
      </trkpt>
      <trkpt lat="36.748872464148" lon="-3.904208805217">
        <ele>34</ele>
        <time>2019-01-03T10:29:01Z</time>
      </trkpt>
      <trkpt lat="36.748909595965" lon="-3.904282482118">
        <ele>34</ele>
        <time>2019-01-03T10:29:04Z</time>
      </trkpt>
      <trkpt lat="36.74895360094" lon="-3.904465123719">
        <ele>34</ele>
        <time>2019-01-03T10:29:10Z</time>
      </trkpt>
      <trkpt lat="36.748969358912" lon="-3.904521533906">
        <ele>33.6</ele>
        <time>2019-01-03T10:29:12Z</time>
      </trkpt>
      <trkpt lat="36.749035073008" lon="-3.904681712015">
        <ele>33.6</ele>
        <time>2019-01-03T10:29:18Z</time>
      </trkpt>
      <trkpt lat="36.749094165403" lon="-3.90484976911">
        <ele>33.6</ele>
        <time>2019-01-03T10:29:24Z</time>
      </trkpt>
      <trkpt lat="36.749145127355" lon="-3.905005169536">
        <ele>33.4</ele>
        <time>2019-01-03T10:29:30Z</time>
      </trkpt>
      <trkpt lat="36.74915644292" lon="-3.905173897183">
        <ele>34.2</ele>
        <time>2019-01-03T10:29:36Z</time>
      </trkpt>
      <trkpt lat="36.749111767393" lon="-3.905360143001">
        <ele>33.8</ele>
        <time>2019-01-03T10:29:42Z</time>
      </trkpt>
      <trkpt lat="36.749032055524" lon="-3.905526020802">
        <ele>34</ele>
        <time>2019-01-03T10:29:48Z</time>
      </trkpt>
      <trkpt lat="36.748927449412" lon="-3.905643870316">
        <ele>33.8</ele>
        <time>2019-01-03T10:29:54Z</time>
      </trkpt>
      <trkpt lat="36.748798451971" lon="-3.905755265767">
        <ele>34.2</ele>
        <time>2019-01-03T10:30:00Z</time>
      </trkpt>
      <trkpt lat="36.748780430886" lon="-3.90577764544">
        <ele>34.4</ele>
        <time>2019-01-03T10:30:01Z</time>
      </trkpt>
      <trkpt lat="36.748668532521" lon="-3.90589080109">
        <ele>34.6</ele>
        <time>2019-01-03T10:30:07Z</time>
      </trkpt>
      <trkpt lat="36.748556382699" lon="-3.90602072054">
        <ele>35</ele>
        <time>2019-01-03T10:30:13Z</time>
      </trkpt>
      <trkpt lat="36.748456973365" lon="-3.906147790144">
        <ele>35.2</ele>
        <time>2019-01-03T10:30:19Z</time>
      </trkpt>
      <trkpt lat="36.748354462728" lon="-3.906275781757">
        <ele>34.6</ele>
        <time>2019-01-03T10:30:25Z</time>
      </trkpt>
      <trkpt lat="36.748238038137" lon="-3.906389272683">
        <ele>34.6</ele>
        <time>2019-01-03T10:30:31Z</time>
      </trkpt>
      <trkpt lat="36.748148267988" lon="-3.906427326509">
        <ele>34.8</ele>
        <time>2019-01-03T10:30:36Z</time>
      </trkpt>
      <trkpt lat="36.74810116171" lon="-3.906372927978">
        <ele>35</ele>
        <time>2019-01-03T10:30:39Z</time>
      </trkpt>
      <trkpt lat="36.748104179194" lon="-3.906206044349">
        <ele>34.6</ele>
        <time>2019-01-03T10:30:45Z</time>
      </trkpt>
      <trkpt lat="36.748119098976" lon="-3.906030946458">
        <ele>34.8</ele>
        <time>2019-01-03T10:30:51Z</time>
      </trkpt>
      <trkpt lat="36.748110800895" lon="-3.905858027861">
        <ele>35.4</ele>
        <time>2019-01-03T10:30:57Z</time>
      </trkpt>
      <trkpt lat="36.748112561094" lon="-3.905801030941">
        <ele>35.8</ele>
        <time>2019-01-03T10:30:59Z</time>
      </trkpt>
      <trkpt lat="36.748126055953" lon="-3.905628615258">
        <ele>35.8</ele>
        <time>2019-01-03T10:31:05Z</time>
      </trkpt>
      <trkpt lat="36.748094204733" lon="-3.905463408009">
        <ele>36.2</ele>
        <time>2019-01-03T10:31:11Z</time>
      </trkpt>
      <trkpt lat="36.748003177299" lon="-3.905312198533">
        <ele>36.4</ele>
        <time>2019-01-03T10:31:17Z</time>
      </trkpt>
      <trkpt lat="36.747874431315" lon="-3.905196695951">
        <ele>36.4</ele>
        <time>2019-01-03T10:31:23Z</time>
      </trkpt>
      <trkpt lat="36.747798156025" lon="-3.905160234686">
        <ele>36.8</ele>
        <time>2019-01-03T10:31:26Z</time>
      </trkpt>
      <trkpt lat="36.747650634585" lon="-3.905128299647">
        <ele>37</ele>
        <time>2019-01-03T10:31:32Z</time>
      </trkpt>
      <trkpt lat="36.747514596348" lon="-3.905120839756">
        <ele>37.6</ele>
        <time>2019-01-03T10:31:38Z</time>
      </trkpt>
      <trkpt lat="36.747466987156" lon="-3.905117822272">
        <ele>37.8</ele>
        <time>2019-01-03T10:31:40Z</time>
      </trkpt>
      <trkpt lat="36.747331787109" lon="-3.9051020643">
        <ele>39.2</ele>
        <time>2019-01-03T10:31:46Z</time>
      </trkpt>
      <trkpt lat="36.747264815728" lon="-3.905172975174">
        <ele>40.4</ele>
        <time>2019-01-03T10:31:50Z</time>
      </trkpt>
      <trkpt lat="36.747248806299" lon="-3.905261068943">
        <ele>41.6</ele>
        <time>2019-01-03T10:31:53Z</time>
      </trkpt>
      <trkpt lat="36.747187702248" lon="-3.905399286474">
        <ele>42.6</ele>
        <time>2019-01-03T10:31:59Z</time>
      </trkpt>
      <trkpt lat="36.747147804404" lon="-3.905592237812">
        <ele>42.6</ele>
        <time>2019-01-03T10:32:05Z</time>
      </trkpt>
      <trkpt lat="36.747126095283" lon="-3.905658119546">
        <ele>42.6</ele>
        <time>2019-01-03T10:32:07Z</time>
      </trkpt>
      <trkpt lat="36.747058620988" lon="-3.905831960152">
        <ele>43</ele>
        <time>2019-01-03T10:32:13Z</time>
      </trkpt>
      <trkpt lat="36.747002462258" lon="-3.90590924127">
        <ele>43</ele>
        <time>2019-01-03T10:32:17Z</time>
      </trkpt>
      <trkpt lat="36.746931467565" lon="-3.906018038332">
        <ele>42.8</ele>
        <time>2019-01-03T10:32:23Z</time>
      </trkpt>
      <trkpt lat="36.74684639128" lon="-3.906108059938">
        <ele>42.2</ele>
        <time>2019-01-03T10:32:29Z</time>
      </trkpt>
      <trkpt lat="36.746763997203" lon="-3.90620344596">
        <ele>41.6</ele>
        <time>2019-01-03T10:32:34Z</time>
      </trkpt>
      <trkpt lat="36.74669300251" lon="-3.906252312437">
        <ele>40.6</ele>
        <time>2019-01-03T10:32:38Z</time>
      </trkpt>
      <trkpt lat="36.746619074152" lon="-3.906284163657">
        <ele>39.4</ele>
        <time>2019-01-03T10:32:41Z</time>
      </trkpt>
      <trkpt lat="36.74654045193" lon="-3.906311907746">
        <ele>38.4</ele>
        <time>2019-01-03T10:32:44Z</time>
      </trkpt>
      <trkpt lat="36.746412125041" lon="-3.906369994313">
        <ele>37.2</ele>
        <time>2019-01-03T10:32:49Z</time>
      </trkpt>
      <trkpt lat="36.746310536413" lon="-3.906385500828">
        <ele>36.6</ele>
        <time>2019-01-03T10:32:53Z</time>
      </trkpt>
      <trkpt lat="36.746212468183" lon="-3.906351637952">
        <ele>36</ele>
        <time>2019-01-03T10:32:57Z</time>
      </trkpt>
      <trkpt lat="36.746171564511" lon="-3.906346357355">
        <ele>35.4</ele>
        <time>2019-01-03T10:33:00Z</time>
      </trkpt>
      <trkpt lat="36.746172654158" lon="-3.906326743709">
        <ele>34.8</ele>
        <time>2019-01-03T10:33:01Z</time>
      </trkpt>
      <trkpt lat="36.746136528169" lon="-3.906139911158">
        <ele>34.2</ele>
        <time>2019-01-03T10:33:07Z</time>
      </trkpt>
      <trkpt lat="36.746014739162" lon="-3.90599306027">
        <ele>34.4</ele>
        <time>2019-01-03T10:33:13Z</time>
      </trkpt>
      <trkpt lat="36.745894291259" lon="-3.905870935987">
        <ele>34</ele>
        <time>2019-01-03T10:33:19Z</time>
      </trkpt>
      <trkpt lat="36.745778118125" lon="-3.905728695144">
        <ele>34.6</ele>
        <time>2019-01-03T10:33:25Z</time>
      </trkpt>
      <trkpt lat="36.745753475339" lon="-3.905718385407">
        <ele>34.8</ele>
        <time>2019-01-03T10:33:27Z</time>
      </trkpt>
      <trkpt lat="36.745713074581" lon="-3.905795079792">
        <ele>35</ele>
        <time>2019-01-03T10:33:33Z</time>
      </trkpt>
      <trkpt lat="36.745763868895" lon="-3.905873282919">
        <ele>36</ele>
        <time>2019-01-03T10:33:37Z</time>
      </trkpt>
      <trkpt lat="36.745816088132" lon="-3.905915024781">
        <ele>37</ele>
        <time>2019-01-03T10:33:40Z</time>
      </trkpt>
      <trkpt lat="36.745885322626" lon="-3.906020552902">
        <ele>38.2</ele>
        <time>2019-01-03T10:33:45Z</time>
      </trkpt>
      <trkpt lat="36.745911725611" lon="-3.906086602274">
        <ele>39.6</ele>
        <time>2019-01-03T10:33:48Z</time>
      </trkpt>
      <trkpt lat="36.745942990098" lon="-3.906164637763">
        <ele>40.8</ele>
        <time>2019-01-03T10:33:52Z</time>
      </trkpt>
      <trkpt lat="36.74595371893" lon="-3.906254491731">
        <ele>42</ele>
        <time>2019-01-03T10:33:56Z</time>
      </trkpt>
      <trkpt lat="36.745950030894" lon="-3.906294976308">
        <ele>43.2</ele>
        <time>2019-01-03T10:33:58Z</time>
      </trkpt>
      <trkpt lat="36.74595204255" lon="-3.906312494479">
        <ele>43.6</ele>
        <time>2019-01-03T10:33:59Z</time>
      </trkpt>
      <trkpt lat="36.745951036722" lon="-3.906347279364">
        <ele>44.2</ele>
        <time>2019-01-03T10:34:01Z</time>
      </trkpt>
      <trkpt lat="36.745944582659" lon="-3.906417771143">
        <ele>45.4</ele>
        <time>2019-01-03T10:34:05Z</time>
      </trkpt>
      <trkpt lat="36.745929579058" lon="-3.906477198814">
        <ele>46.8</ele>
        <time>2019-01-03T10:34:08Z</time>
      </trkpt>
      <trkpt lat="36.745912144706" lon="-3.906521455246">
        <ele>47.8</ele>
        <time>2019-01-03T10:34:10Z</time>
      </trkpt>
      <trkpt lat="36.745884652074" lon="-3.906561185452">
        <ele>49</ele>
        <time>2019-01-03T10:34:13Z</time>
      </trkpt>
      <trkpt lat="36.745850873017" lon="-3.906562107461">
        <ele>50.2</ele>
        <time>2019-01-03T10:34:18Z</time>
      </trkpt>
      <trkpt lat="36.745839976547" lon="-3.90654542748">
        <ele>51</ele>
        <time>2019-01-03T10:34:20Z</time>
      </trkpt>
      <trkpt lat="36.745835617959" lon="-3.906529166594">
        <ele>51.2</ele>
        <time>2019-01-03T10:34:21Z</time>
      </trkpt>
      <trkpt lat="36.745826816964" lon="-3.906445179956">
        <ele>52.2</ele>
        <time>2019-01-03T10:34:26Z</time>
      </trkpt>
      <trkpt lat="36.745828074249" lon="-3.906429589622">
        <ele>52.4</ele>
        <time>2019-01-03T10:34:27Z</time>
      </trkpt>
      <trkpt lat="36.745805275481" lon="-3.906362618241">
        <ele>53.6</ele>
        <time>2019-01-03T10:34:32Z</time>
      </trkpt>
      <trkpt lat="36.745765377637" lon="-3.90633504179">
        <ele>54.6</ele>
        <time>2019-01-03T10:34:35Z</time>
      </trkpt>
      <trkpt lat="36.745698406256" lon="-3.906325654062">
        <ele>55.6</ele>
        <time>2019-01-03T10:34:39Z</time>
      </trkpt>
      <trkpt lat="36.745607127365" lon="-3.906324061501">
        <ele>56.6</ele>
        <time>2019-01-03T10:34:45Z</time>
      </trkpt>
      <trkpt lat="36.74556815153" lon="-3.906340238568">
        <ele>56.8</ele>
        <time>2019-01-03T10:34:48Z</time>
      </trkpt>
      <trkpt lat="36.745489445489" lon="-3.906372257426">
        <ele>57.6</ele>
        <time>2019-01-03T10:34:54Z</time>
      </trkpt>
      <trkpt lat="36.745450888749" lon="-3.906391116701">
        <ele>58</ele>
        <time>2019-01-03T10:34:57Z</time>
      </trkpt>
      <trkpt lat="36.745436052786" lon="-3.9064012588">
        <ele>58.2</ele>
        <time>2019-01-03T10:34:58Z</time>
      </trkpt>
      <trkpt lat="36.745378385314" lon="-3.90642556631">
        <ele>59.2</ele>
        <time>2019-01-03T10:35:02Z</time>
      </trkpt>
      <trkpt lat="36.745301690929" lon="-3.906436798056">
        <ele>60.2</ele>
        <time>2019-01-03T10:35:07Z</time>
      </trkpt>
      <trkpt lat="36.745165317416" lon="-3.906467643448">
        <ele>61</ele>
        <time>2019-01-03T10:35:13Z</time>
      </trkpt>
      <trkpt lat="36.745125084296" lon="-3.906470241837">
        <ele>61.4</ele>
        <time>2019-01-03T10:35:15Z</time>
      </trkpt>
      <trkpt lat="36.745064734616" lon="-3.906470912389">
        <ele>62.6</ele>
        <time>2019-01-03T10:35:18Z</time>
      </trkpt>
      <trkpt lat="36.744984938928" lon="-3.906514498269">
        <ele>63.6</ele>
        <time>2019-01-03T10:35:22Z</time>
      </trkpt>
      <trkpt lat="36.744852924003" lon="-3.906520030323">
        <ele>65.8</ele>
        <time>2019-01-03T10:35:28Z</time>
      </trkpt>
      <trkpt lat="36.744828448855" lon="-3.906530842974">
        <ele>66.2</ele>
        <time>2019-01-03T10:35:29Z</time>
      </trkpt>
      <trkpt lat="36.744770613745" lon="-3.906589097179">
        <ele>66.8</ele>
        <time>2019-01-03T10:35:32Z</time>
      </trkpt>
      <trkpt lat="36.744738259611" lon="-3.90664936304">
        <ele>68</ele>
        <time>2019-01-03T10:35:35Z</time>
      </trkpt>
      <trkpt lat="36.744705737839" lon="-3.906717591706">
        <ele>69.2</ele>
        <time>2019-01-03T10:35:39Z</time>
      </trkpt>
      <trkpt lat="36.744702804174" lon="-3.906728907271">
        <ele>69.4</ele>
        <time>2019-01-03T10:35:40Z</time>
      </trkpt>
      <trkpt lat="36.74473079972" lon="-3.906832842831">
        <ele>70.2</ele>
        <time>2019-01-03T10:35:46Z</time>
      </trkpt>
      <trkpt lat="36.744749491357" lon="-3.906848684622">
        <ele>70.2</ele>
        <time>2019-01-03T10:35:47Z</time>
      </trkpt>
      <trkpt lat="36.744825850466" lon="-3.906912051786">
        <ele>71.4</ele>
        <time>2019-01-03T10:35:53Z</time>
      </trkpt>
      <trkpt lat="36.744900533195" lon="-3.906981705375">
        <ele>71.8</ele>
        <time>2019-01-03T10:35:59Z</time>
      </trkpt>
      <trkpt lat="36.745046378255" lon="-3.907030404214">
        <ele>72.4</ele>
        <time>2019-01-03T10:36:05Z</time>
      </trkpt>
      <trkpt lat="36.745182248854" lon="-3.907096621224">
        <ele>73.4</ele>
        <time>2019-01-03T10:36:11Z</time>
      </trkpt>
      <trkpt lat="36.745286854966" lon="-3.907177003645">
        <ele>74.8</ele>
        <time>2019-01-03T10:36:17Z</time>
      </trkpt>
      <trkpt lat="36.745371260699" lon="-3.907261577016">
        <ele>75.8</ele>
        <time>2019-01-03T10:36:22Z</time>
      </trkpt>
      <trkpt lat="36.745427084153" lon="-3.907357130676">
        <ele>76.8</ele>
        <time>2019-01-03T10:36:26Z</time>
      </trkpt>
      <trkpt lat="36.745458264821" lon="-3.907414965786">
        <ele>78.2</ele>
        <time>2019-01-03T10:36:29Z</time>
      </trkpt>
      <trkpt lat="36.745472849327" lon="-3.90744648173">
        <ele>79.2</ele>
        <time>2019-01-03T10:36:32Z</time>
      </trkpt>
      <trkpt lat="36.745477543191" lon="-3.907508843066">
        <ele>80</ele>
        <time>2019-01-03T10:36:37Z</time>
      </trkpt>
      <trkpt lat="36.745522218718" lon="-3.907587716745">
        <ele>80.4</ele>
        <time>2019-01-03T10:36:43Z</time>
      </trkpt>
      <trkpt lat="36.745538311966" lon="-3.907606492201">
        <ele>80.8</ele>
        <time>2019-01-03T10:36:45Z</time>
      </trkpt>
      <trkpt lat="36.745567480978" lon="-3.90762753077">
        <ele>81.4</ele>
        <time>2019-01-03T10:36:48Z</time>
      </trkpt>
      <trkpt lat="36.745635877282" lon="-3.907655442497">
        <ele>82.4</ele>
        <time>2019-01-03T10:36:54Z</time>
      </trkpt>
      <trkpt lat="36.745651216159" lon="-3.907658962895">
        <ele>82.6</ele>
        <time>2019-01-03T10:36:55Z</time>
      </trkpt>
      <trkpt lat="36.745762192515" lon="-3.90772140805">
        <ele>82.8</ele>
        <time>2019-01-03T10:37:01Z</time>
      </trkpt>
      <trkpt lat="36.745828409525" lon="-3.907774297839">
        <ele>83.6</ele>
        <time>2019-01-03T10:37:04Z</time>
      </trkpt>
      <trkpt lat="36.745865373704" lon="-3.90780774162">
        <ele>84.8</ele>
        <time>2019-01-03T10:37:06Z</time>
      </trkpt>
      <trkpt lat="36.74592522047" lon="-3.907840011935">
        <ele>85.8</ele>
        <time>2019-01-03T10:37:09Z</time>
      </trkpt>
      <trkpt lat="36.74599227567" lon="-3.907903043823">
        <ele>87.2</ele>
        <time>2019-01-03T10:37:13Z</time>
      </trkpt>
      <trkpt lat="36.746049188771" lon="-3.907936990518">
        <ele>88.4</ele>
        <time>2019-01-03T10:37:16Z</time>
      </trkpt>
      <trkpt lat="36.74610626951" lon="-3.907977978009">
        <ele>89.6</ele>
        <time>2019-01-03T10:37:19Z</time>
      </trkpt>
      <trkpt lat="36.746119093817" lon="-3.908021563889">
        <ele>90.8</ele>
        <time>2019-01-03T10:37:21Z</time>
      </trkpt>
      <trkpt lat="36.746115992514" lon="-3.908046039037">
        <ele>91.6</ele>
        <time>2019-01-03T10:37:23Z</time>
      </trkpt>
      <trkpt lat="36.746105263682" lon="-3.908058192792">
        <ele>92.2</ele>
        <time>2019-01-03T10:37:24Z</time>
      </trkpt>
      <trkpt lat="36.746054804644" lon="-3.90810865183">
        <ele>93</ele>
        <time>2019-01-03T10:37:30Z</time>
      </trkpt>
      <trkpt lat="36.746047260934" lon="-3.908121308499">
        <ele>93.2</ele>
        <time>2019-01-03T10:37:31Z</time>
      </trkpt>
      <trkpt lat="36.745978445535" lon="-3.908178975971">
        <ele>94.4</ele>
        <time>2019-01-03T10:37:37Z</time>
      </trkpt>
      <trkpt lat="36.745970734187" lon="-3.908179143609">
        <ele>94.6</ele>
        <time>2019-01-03T10:37:38Z</time>
      </trkpt>
      <trkpt lat="36.745973332576" lon="-3.908182496369">
        <ele>95</ele>
        <time>2019-01-03T10:37:42Z</time>
      </trkpt>
      <trkpt lat="36.745973584033" lon="-3.908177886324">
        <ele>95</ele>
        <time>2019-01-03T10:37:43Z</time>
      </trkpt>
      <trkpt lat="36.745862691496" lon="-3.908382404684">
        <ele>96</ele>
        <time>2019-01-03T10:48:16Z</time>
      </trkpt>
      <trkpt lat="36.745906193557" lon="-3.908457841784">
        <ele>95.4</ele>
        <time>2019-01-03T10:48:20Z</time>
      </trkpt>
      <trkpt lat="36.746009290927" lon="-3.908633274951">
        <ele>96.4</ele>
        <time>2019-01-03T10:48:26Z</time>
      </trkpt>
      <trkpt lat="36.746117417437" lon="-3.908816587104">
        <ele>96.6</ele>
        <time>2019-01-03T10:48:32Z</time>
      </trkpt>
      <trkpt lat="36.746206349396" lon="-3.908965449648">
        <ele>97.2</ele>
        <time>2019-01-03T10:48:38Z</time>
      </trkpt>
      <trkpt lat="36.746225963042" lon="-3.909021859835">
        <ele>97.2</ele>
        <time>2019-01-03T10:48:40Z</time>
      </trkpt>
      <trkpt lat="36.746270722388" lon="-3.909185642161">
        <ele>97.8</ele>
        <time>2019-01-03T10:48:46Z</time>
      </trkpt>
      <trkpt lat="36.746275248614" lon="-3.909212045146">
        <ele>98</ele>
        <time>2019-01-03T10:48:48Z</time>
      </trkpt>
      <trkpt lat="36.746272650225" lon="-3.909220594684">
        <ele>98.2</ele>
        <time>2019-01-03T10:48:49Z</time>
      </trkpt>
      <trkpt lat="36.746271476759" lon="-3.90923015005">
        <ele>98.4</ele>
        <time>2019-01-03T10:48:50Z</time>
      </trkpt>
      <trkpt lat="36.746276589718" lon="-3.909252864999">
        <ele>99</ele>
        <time>2019-01-03T10:48:53Z</time>
      </trkpt>
      <trkpt lat="36.746299220848" lon="-3.90929217611">
        <ele>99</ele>
        <time>2019-01-03T10:48:56Z</time>
      </trkpt>
      <trkpt lat="36.746368790618" lon="-3.909346071727">
        <ele>99.2</ele>
        <time>2019-01-03T10:49:00Z</time>
      </trkpt>
      <trkpt lat="36.746459734233" lon="-3.909390411978">
        <ele>100.4</ele>
        <time>2019-01-03T10:49:04Z</time>
      </trkpt>
      <trkpt lat="36.746476665671" lon="-3.909381275707">
        <ele>101</ele>
        <time>2019-01-03T10:49:06Z</time>
      </trkpt>
      <trkpt lat="36.7464507656" lon="-3.90938102425">
        <ele>101.4</ele>
        <time>2019-01-03T10:49:09Z</time>
      </trkpt>
      <trkpt lat="36.746444646813" lon="-3.909390747254">
        <ele>101.4</ele>
        <time>2019-01-03T10:49:10Z</time>
      </trkpt>
      <trkpt lat="36.74645244198" lon="-3.909427795252">
        <ele>101.2</ele>
        <time>2019-01-03T10:49:13Z</time>
      </trkpt>
      <trkpt lat="36.746503990665" lon="-3.909452773314">
        <ele>100.4</ele>
        <time>2019-01-03T10:49:16Z</time>
      </trkpt>
      <trkpt lat="36.746574733901" lon="-3.909481439412">
        <ele>99.4</ele>
        <time>2019-01-03T10:49:19Z</time>
      </trkpt>
      <trkpt lat="36.746682441316" lon="-3.909531395536">
        <ele>98</ele>
        <time>2019-01-03T10:49:24Z</time>
      </trkpt>
      <trkpt lat="36.746742623358" lon="-3.909566012783">
        <ele>96.6</ele>
        <time>2019-01-03T10:49:27Z</time>
      </trkpt>
      <trkpt lat="36.746785371048" lon="-3.909568108258">
        <ele>96</ele>
        <time>2019-01-03T10:49:31Z</time>
      </trkpt>
      <trkpt lat="36.746788304713" lon="-3.909569114086">
        <ele>95.6</ele>
        <time>2019-01-03T10:49:36Z</time>
      </trkpt>
      <trkpt lat="36.7467944235" lon="-3.909571628656">
        <ele>95.4</ele>
        <time>2019-01-03T10:49:42Z</time>
      </trkpt>
      <trkpt lat="36.74685561137" lon="-3.909622925884">
        <ele>95.6</ele>
        <time>2019-01-03T10:49:46Z</time>
      </trkpt>
      <trkpt lat="36.746991565788" lon="-3.909734405154">
        <ele>94.6</ele>
        <time>2019-01-03T10:49:52Z</time>
      </trkpt>
      <trkpt lat="36.747141015065" lon="-3.909817050688">
        <ele>94.6</ele>
        <time>2019-01-03T10:49:58Z</time>
      </trkpt>
      <trkpt lat="36.747231874861" lon="-3.909851919392">
        <ele>94.8</ele>
        <time>2019-01-03T10:50:03Z</time>
      </trkpt>
      <trkpt lat="36.74712215579" lon="-3.909775979378">
        <ele>95.2</ele>
        <time>2019-01-03T10:50:09Z</time>
      </trkpt>
      <trkpt lat="36.746952338496" lon="-3.909692914749">
        <ele>94.2</ele>
        <time>2019-01-03T10:50:15Z</time>
      </trkpt>
      <trkpt lat="36.746798530631" lon="-3.909591996673">
        <ele>94.4</ele>
        <time>2019-01-03T10:50:21Z</time>
      </trkpt>
      <trkpt lat="36.746757626959" lon="-3.909558217616">
        <ele>96.2</ele>
        <time>2019-01-03T10:50:23Z</time>
      </trkpt>
      <trkpt lat="36.74671395726" lon="-3.909527120767">
        <ele>98.2</ele>
        <time>2019-01-03T10:50:25Z</time>
      </trkpt>
      <trkpt lat="36.746584121629" lon="-3.909475069168">
        <ele>99.2</ele>
        <time>2019-01-03T10:50:31Z</time>
      </trkpt>
      <trkpt lat="36.746461745889" lon="-3.909415725316">
        <ele>99.6</ele>
        <time>2019-01-03T10:50:37Z</time>
      </trkpt>
      <trkpt lat="36.746442718976" lon="-3.90939946443">
        <ele>99.8</ele>
        <time>2019-01-03T10:50:39Z</time>
      </trkpt>
      <trkpt lat="36.746458812224" lon="-3.909382616811">
        <ele>101.4</ele>
        <time>2019-01-03T10:50:41Z</time>
      </trkpt>
      <trkpt lat="36.746496279317" lon="-3.909367194115">
        <ele>103</ele>
        <time>2019-01-03T10:50:43Z</time>
      </trkpt>
      <trkpt lat="36.746638268703" lon="-3.909342216053">
        <ele>103.2</ele>
        <time>2019-01-03T10:50:49Z</time>
      </trkpt>
      <trkpt lat="36.746701887324" lon="-3.909347831926">
        <ele>104</ele>
        <time>2019-01-03T10:50:52Z</time>
      </trkpt>
      <trkpt lat="36.746790986921" lon="-3.909360823871">
        <ele>105.2</ele>
        <time>2019-01-03T10:50:56Z</time>
      </trkpt>
      <trkpt lat="36.746864663822" lon="-3.909359566586">
        <ele>106.2</ele>
        <time>2019-01-03T10:50:59Z</time>
      </trkpt>
      <trkpt lat="36.74695703236" lon="-3.90937850968">
        <ele>107.6</ele>
        <time>2019-01-03T10:51:03Z</time>
      </trkpt>
      <trkpt lat="36.747061554653" lon="-3.90942544832">
        <ele>108.6</ele>
        <time>2019-01-03T10:51:08Z</time>
      </trkpt>
      <trkpt lat="36.747124167446" lon="-3.909442966491">
        <ele>109.6</ele>
        <time>2019-01-03T10:51:11Z</time>
      </trkpt>
      <trkpt lat="36.747201364745" lon="-3.909459981748">
        <ele>110.8</ele>
        <time>2019-01-03T10:51:15Z</time>
      </trkpt>
      <trkpt lat="36.747279400234" lon="-3.909469704752">
        <ele>112.2</ele>
        <time>2019-01-03T10:51:19Z</time>
      </trkpt>
      <trkpt lat="36.747320052449" lon="-3.909440200464">
        <ele>113</ele>
        <time>2019-01-03T10:51:21Z</time>
      </trkpt>
      <trkpt lat="36.747333882584" lon="-3.909413462203">
        <ele>113.2</ele>
        <time>2019-01-03T10:51:22Z</time>
      </trkpt>
      <trkpt lat="36.747385179812" lon="-3.909287314608">
        <ele>114</ele>
        <time>2019-01-03T10:51:28Z</time>
      </trkpt>
      <trkpt lat="36.747413091539" lon="-3.909276921052">
        <ele>114.6</ele>
        <time>2019-01-03T10:51:30Z</time>
      </trkpt>
      <trkpt lat="36.747463885853" lon="-3.909266611315">
        <ele>115.6</ele>
        <time>2019-01-03T10:51:33Z</time>
      </trkpt>
      <trkpt lat="36.747576622408" lon="-3.909263510012">
        <ele>116</ele>
        <time>2019-01-03T10:51:39Z</time>
      </trkpt>
      <trkpt lat="36.747702602365" lon="-3.909215146449">
        <ele>116</ele>
        <time>2019-01-03T10:51:45Z</time>
      </trkpt>
      <trkpt lat="36.747844256475" lon="-3.909149767629">
        <ele>116.4</ele>
        <time>2019-01-03T10:51:51Z</time>
      </trkpt>
      <trkpt lat="36.747948527311" lon="-3.90910358336">
        <ele>116.8</ele>
        <time>2019-01-03T10:51:55Z</time>
      </trkpt>
      <trkpt lat="36.748079871684" lon="-3.909040383834">
        <ele>116.4</ele>
        <time>2019-01-03T10:52:01Z</time>
      </trkpt>
      <trkpt lat="36.748122619374" lon="-3.908989170425">
        <ele>115.6</ele>
        <time>2019-01-03T10:52:04Z</time>
      </trkpt>
      <trkpt lat="36.7481439094" lon="-3.908951368056">
        <ele>115.2</ele>
        <time>2019-01-03T10:52:06Z</time>
      </trkpt>
      <trkpt lat="36.748187579099" lon="-3.90889152129">
        <ele>114.6</ele>
        <time>2019-01-03T10:52:09Z</time>
      </trkpt>
      <trkpt lat="36.74823443392" lon="-3.908823711719">
        <ele>113.4</ele>
        <time>2019-01-03T10:52:12Z</time>
      </trkpt>
      <trkpt lat="36.74826712333" lon="-3.908752046474">
        <ele>112.2</ele>
        <time>2019-01-03T10:52:15Z</time>
      </trkpt>
      <trkpt lat="36.748302746405" lon="-3.908633694046">
        <ele>110.8</ele>
        <time>2019-01-03T10:52:20Z</time>
      </trkpt>
      <trkpt lat="36.748314816341" lon="-3.908586923044">
        <ele>109.8</ele>
        <time>2019-01-03T10:52:22Z</time>
      </trkpt>
      <trkpt lat="36.748352283434" lon="-3.90853277597">
        <ele>108.2</ele>
        <time>2019-01-03T10:52:25Z</time>
      </trkpt>
      <trkpt lat="36.748404083576" lon="-3.908465553132">
        <ele>107</ele>
        <time>2019-01-03T10:52:29Z</time>
      </trkpt>
      <trkpt lat="36.748441969764" lon="-3.908434623921">
        <ele>106</ele>
        <time>2019-01-03T10:52:31Z</time>
      </trkpt>
      <trkpt lat="36.748467199283" lon="-3.908437976681">
        <ele>105.8</ele>
        <time>2019-01-03T10:52:32Z</time>
      </trkpt>
      <trkpt lat="36.748507013308" lon="-3.908436551758">
        <ele>105.4</ele>
        <time>2019-01-03T10:52:34Z</time>
      </trkpt>
      <trkpt lat="36.748564429323" lon="-3.908388439652">
        <ele>104.6</ele>
        <time>2019-01-03T10:52:37Z</time>
      </trkpt>
      <trkpt lat="36.748626455383" lon="-3.908310907077">
        <ele>103.2</ele>
        <time>2019-01-03T10:52:41Z</time>
      </trkpt>
      <trkpt lat="36.748674567489" lon="-3.908240499117">
        <ele>102</ele>
        <time>2019-01-03T10:52:44Z</time>
      </trkpt>
      <trkpt lat="36.748739527214" lon="-3.908160284334">
        <ele>100.6</ele>
        <time>2019-01-03T10:52:48Z</time>
      </trkpt>
      <trkpt lat="36.748737515558" lon="-3.9081195483">
        <ele>99.4</ele>
        <time>2019-01-03T10:52:50Z</time>
      </trkpt>
      <trkpt lat="36.748740784499" lon="-3.908082919397">
        <ele>98.4</ele>
        <time>2019-01-03T10:52:52Z</time>
      </trkpt>
      <trkpt lat="36.74872645145" lon="-3.907957861449">
        <ele>97.6</ele>
        <time>2019-01-03T10:52:58Z</time>
      </trkpt>
      <trkpt lat="36.748735252445" lon="-3.907934895043">
        <ele>97.4</ele>
        <time>2019-01-03T10:52:59Z</time>
      </trkpt>
      <trkpt lat="36.74874908258" lon="-3.907881669978">
        <ele>97</ele>
        <time>2019-01-03T10:53:01Z</time>
      </trkpt>
      <trkpt lat="36.749038425768" lon="-3.907937074337">
        <ele>91.2</ele>
        <time>2019-01-03T10:55:10Z</time>
      </trkpt>
      <trkpt lat="36.74904580184" lon="-3.907942103477">
        <ele>90.8</ele>
        <time>2019-01-03T10:55:11Z</time>
      </trkpt>
      <trkpt lat="36.749072288644" lon="-3.907936319966">
        <ele>90</ele>
        <time>2019-01-03T10:55:13Z</time>
      </trkpt>
      <trkpt lat="36.74908854953" lon="-3.907919388528">
        <ele>88.8</ele>
        <time>2019-01-03T10:55:15Z</time>
      </trkpt>
      <trkpt lat="36.749100703285" lon="-3.9079016189">
        <ele>89</ele>
        <time>2019-01-03T10:55:17Z</time>
      </trkpt>
      <trkpt lat="36.749114701058" lon="-3.907875383553">
        <ele>88.6</ele>
        <time>2019-01-03T10:55:19Z</time>
      </trkpt>
      <trkpt lat="36.74916314844" lon="-3.907843448514">
        <ele>87.4</ele>
        <time>2019-01-03T10:55:22Z</time>
      </trkpt>
      <trkpt lat="36.749189048511" lon="-3.907817548443">
        <ele>86.4</ele>
        <time>2019-01-03T10:55:24Z</time>
      </trkpt>
      <trkpt lat="36.749242860309" lon="-3.907786032499">
        <ele>85</ele>
        <time>2019-01-03T10:55:27Z</time>
      </trkpt>
      <trkpt lat="36.749279237755" lon="-3.907753678365">
        <ele>84</ele>
        <time>2019-01-03T10:55:30Z</time>
      </trkpt>
      <trkpt lat="36.749387112808" lon="-3.907652173556">
        <ele>82.4</ele>
        <time>2019-01-03T10:55:36Z</time>
      </trkpt>
      <trkpt lat="36.74941041449" lon="-3.907608000943">
        <ele>80.6</ele>
        <time>2019-01-03T10:55:38Z</time>
      </trkpt>
      <trkpt lat="36.749441092244" lon="-3.907536000422">
        <ele>79.2</ele>
        <time>2019-01-03T10:55:41Z</time>
      </trkpt>
      <trkpt lat="36.749466154125" lon="-3.90745486363">
        <ele>78</ele>
        <time>2019-01-03T10:55:44Z</time>
      </trkpt>
      <trkpt lat="36.749474200749" lon="-3.907379175073">
        <ele>76.6</ele>
        <time>2019-01-03T10:55:47Z</time>
      </trkpt>
      <trkpt lat="36.749472692007" lon="-3.907296613358">
        <ele>75.4</ele>
        <time>2019-01-03T10:55:50Z</time>
      </trkpt>
      <trkpt lat="36.749466740858" lon="-3.907245735225">
        <ele>74.4</ele>
        <time>2019-01-03T10:55:52Z</time>
      </trkpt>
      <trkpt lat="36.749467076134" lon="-3.907191169056">
        <ele>73.2</ele>
        <time>2019-01-03T10:55:54Z</time>
      </trkpt>
      <trkpt lat="36.749471937636" lon="-3.907113887938">
        <ele>71.8</ele>
        <time>2019-01-03T10:55:57Z</time>
      </trkpt>
      <trkpt lat="36.749505632874" lon="-3.907057226294">
        <ele>70.4</ele>
        <time>2019-01-03T10:56:00Z</time>
      </trkpt>
      <trkpt lat="36.749569922047" lon="-3.90700559379">
        <ele>69.2</ele>
        <time>2019-01-03T10:56:04Z</time>
      </trkpt>
      <trkpt lat="36.749603030552" lon="-3.906978352615">
        <ele>68.2</ele>
        <time>2019-01-03T10:56:06Z</time>
      </trkpt>
      <trkpt lat="36.749664888974" lon="-3.906940382608">
        <ele>66.8</ele>
        <time>2019-01-03T10:56:09Z</time>
      </trkpt>
      <trkpt lat="36.749745187576" lon="-3.906882044584">
        <ele>65.6</ele>
        <time>2019-01-03T10:56:13Z</time>
      </trkpt>
      <trkpt lat="36.749836969381" lon="-3.906777354653">
        <ele>64.6</ele>
        <time>2019-01-03T10:56:19Z</time>
      </trkpt>
      <trkpt lat="36.749937049267" lon="-3.906662606442">
        <ele>63.8</ele>
        <time>2019-01-03T10:56:25Z</time>
      </trkpt>
      <trkpt lat="36.749954986533" lon="-3.90664349571">
        <ele>63.6</ele>
        <time>2019-01-03T10:56:26Z</time>
      </trkpt>
      <trkpt lat="36.749999745879" lon="-3.906486921818">
        <ele>63.2</ele>
        <time>2019-01-03T10:56:32Z</time>
      </trkpt>
      <trkpt lat="36.749998907689" lon="-3.906465967068">
        <ele>63.2</ele>
        <time>2019-01-03T10:56:34Z</time>
      </trkpt>
      <trkpt lat="36.749954567438" lon="-3.906441072825">
        <ele>62.4</ele>
        <time>2019-01-03T10:56:39Z</time>
      </trkpt>
      <trkpt lat="36.749946436995" lon="-3.906440821368">
        <ele>62.4</ele>
        <time>2019-01-03T10:56:40Z</time>
      </trkpt>
      <trkpt lat="36.7499543998" lon="-3.906464542145">
        <ele>62.2</ele>
        <time>2019-01-03T10:56:42Z</time>
      </trkpt>
      <trkpt lat="36.749976947111" lon="-3.906480719212">
        <ele>62.2</ele>
        <time>2019-01-03T10:56:44Z</time>
      </trkpt>
      <trkpt lat="36.750032854384" lon="-3.906380471688">
        <ele>62.2</ele>
        <time>2019-01-03T10:56:50Z</time>
      </trkpt>
      <trkpt lat="36.750064873242" lon="-3.906325067329">
        <ele>61.4</ele>
        <time>2019-01-03T10:56:53Z</time>
      </trkpt>
      <trkpt lat="36.750097562652" lon="-3.906266394029">
        <ele>60.2</ele>
        <time>2019-01-03T10:56:56Z</time>
      </trkpt>
      <trkpt lat="36.750133353365" lon="-3.906190202558">
        <ele>59.2</ele>
        <time>2019-01-03T10:57:00Z</time>
      </trkpt>
      <trkpt lat="36.75015388902" lon="-3.906141168443">
        <ele>57.8</ele>
        <time>2019-01-03T10:57:03Z</time>
      </trkpt>
      <trkpt lat="36.750176855426" lon="-3.906093056337">
        <ele>56.4</ele>
        <time>2019-01-03T10:57:06Z</time>
      </trkpt>
      <trkpt lat="36.750193786864" lon="-3.906038741625">
        <ele>55.2</ele>
        <time>2019-01-03T10:57:09Z</time>
      </trkpt>
      <trkpt lat="36.750192529579" lon="-3.906023905662">
        <ele>54.8</ele>
        <time>2019-01-03T10:57:10Z</time>
      </trkpt>
      <trkpt lat="36.750166629508" lon="-3.90595366534">
        <ele>52.4</ele>
        <time>2019-01-03T10:57:24Z</time>
      </trkpt>
      <trkpt lat="36.75017484377" lon="-3.905954084435">
        <ele>52.4</ele>
        <time>2019-01-03T10:57:25Z</time>
      </trkpt>
      <trkpt lat="36.750207616999" lon="-3.905931788581">
        <ele>51.8</ele>
        <time>2019-01-03T10:57:31Z</time>
      </trkpt>
      <trkpt lat="36.750231421595" lon="-3.90589415385">
        <ele>51.6</ele>
        <time>2019-01-03T10:57:34Z</time>
      </trkpt>
      <trkpt lat="36.750247179567" lon="-3.90586649358">
        <ele>51.4</ele>
        <time>2019-01-03T10:57:36Z</time>
      </trkpt>
      <trkpt lat="36.750261931711" lon="-3.90584386245">
        <ele>50.2</ele>
        <time>2019-01-03T10:57:39Z</time>
      </trkpt>
      <trkpt lat="36.750287915601" lon="-3.905798516371">
        <ele>49.6</ele>
        <time>2019-01-03T10:57:42Z</time>
      </trkpt>
      <trkpt lat="36.750300656089" lon="-3.905747135324">
        <ele>49.2</ele>
        <time>2019-01-03T10:57:45Z</time>
      </trkpt>
      <trkpt lat="36.750303841211" lon="-3.905650827293">
        <ele>48</ele>
        <time>2019-01-03T10:57:49Z</time>
      </trkpt>
      <trkpt lat="36.750303841211" lon="-3.905557452927">
        <ele>47</ele>
        <time>2019-01-03T10:57:53Z</time>
      </trkpt>
      <trkpt lat="36.75028548485" lon="-3.905417475197">
        <ele>45.8</ele>
        <time>2019-01-03T10:57:58Z</time>
      </trkpt>
      <trkpt lat="36.750229745215" lon="-3.90534597759">
        <ele>44.4</ele>
        <time>2019-01-03T10:58:01Z</time>
      </trkpt>
      <trkpt lat="36.75016227092" lon="-3.905338098604">
        <ele>43.6</ele>
        <time>2019-01-03T10:58:04Z</time>
      </trkpt>
      <trkpt lat="36.750142321998" lon="-3.905345307038">
        <ele>43.4</ele>
        <time>2019-01-03T10:58:05Z</time>
      </trkpt>
      <trkpt lat="36.750101418326" lon="-3.90537363786">
        <ele>42.2</ele>
        <time>2019-01-03T10:58:08Z</time>
      </trkpt>
      <trkpt lat="36.750031848556" lon="-3.905469610615">
        <ele>41.2</ele>
        <time>2019-01-03T10:58:14Z</time>
      </trkpt>
      <trkpt lat="36.750015084756" lon="-3.905486206777">
        <ele>41</ele>
        <time>2019-01-03T10:58:15Z</time>
      </trkpt>
      <trkpt lat="36.749927242444" lon="-3.905546640276">
        <ele>40</ele>
        <time>2019-01-03T10:58:20Z</time>
      </trkpt>
      <trkpt lat="36.749789611646" lon="-3.905614282209">
        <ele>39.8</ele>
        <time>2019-01-03T10:58:26Z</time>
      </trkpt>
      <trkpt lat="36.749699925316" lon="-3.905696257191">
        <ele>39.4</ele>
        <time>2019-01-03T10:58:32Z</time>
      </trkpt>
      <trkpt lat="36.749654495418" lon="-3.905777393983">
        <ele>39</ele>
        <time>2019-01-03T10:58:36Z</time>
      </trkpt>
      <trkpt lat="36.749628930623" lon="-3.905855178015">
        <ele>39</ele>
        <time>2019-01-03T10:58:42Z</time>
      </trkpt>
      <trkpt lat="36.749624655854" lon="-3.905862134992">
        <ele>39</ele>
        <time>2019-01-03T10:58:43Z</time>
      </trkpt>
      <trkpt lat="36.74974652868" lon="-3.906837788152">
        <ele>64.4</ele>
        <time>2019-01-03T11:02:44Z</time>
      </trkpt>
      <trkpt lat="36.749646448794" lon="-3.906923618808">
        <ele>65</ele>
        <time>2019-01-03T11:02:50Z</time>
      </trkpt>
      <trkpt lat="36.749607556778" lon="-3.906953961286">
        <ele>65.4</ele>
        <time>2019-01-03T11:02:52Z</time>
      </trkpt>
      <trkpt lat="36.749517199896" lon="-3.907013640414">
        <ele>66.8</ele>
        <time>2019-01-03T11:02:57Z</time>
      </trkpt>
      <trkpt lat="36.749458610415" lon="-3.907075834112">
        <ele>67.8</ele>
        <time>2019-01-03T11:03:01Z</time>
      </trkpt>
      <trkpt lat="36.749436733656" lon="-3.907162000044">
        <ele>69</ele>
        <time>2019-01-03T11:03:05Z</time>
      </trkpt>
      <trkpt lat="36.74943556019" lon="-3.907227797959">
        <ele>70</ele>
        <time>2019-01-03T11:03:08Z</time>
      </trkpt>
      <trkpt lat="36.749438996769" lon="-3.907269204545">
        <ele>71.2</ele>
        <time>2019-01-03T11:03:10Z</time>
      </trkpt>
      <trkpt lat="36.749436817475" lon="-3.907309186208">
        <ele>72.2</ele>
        <time>2019-01-03T11:03:12Z</time>
      </trkpt>
      <trkpt lat="36.749431117783" lon="-3.907369787345">
        <ele>73.4</ele>
        <time>2019-01-03T11:03:15Z</time>
      </trkpt>
      <trkpt lat="36.749426843014" lon="-3.907409769008">
        <ele>74.4</ele>
        <time>2019-01-03T11:03:17Z</time>
      </trkpt>
      <trkpt lat="36.749415108354" lon="-3.907483613547">
        <ele>76</ele>
        <time>2019-01-03T11:03:20Z</time>
      </trkpt>
      <trkpt lat="36.74939532707" lon="-3.907549914376">
        <ele>77.2</ele>
        <time>2019-01-03T11:03:23Z</time>
      </trkpt>
      <trkpt lat="36.749367247705" lon="-3.907624429467">
        <ele>78.6</ele>
        <time>2019-01-03T11:03:27Z</time>
      </trkpt>
      <trkpt lat="36.749335983218" lon="-3.907672541573">
        <ele>79.8</ele>
        <time>2019-01-03T11:03:30Z</time>
      </trkpt>
      <trkpt lat="36.74931988997" lon="-3.907694166875">
        <ele>80.8</ele>
        <time>2019-01-03T11:03:32Z</time>
      </trkpt>
      <trkpt lat="36.749271442588" lon="-3.907740267325">
        <ele>81.4</ele>
        <time>2019-01-03T11:03:38Z</time>
      </trkpt>
      <trkpt lat="36.749253337684" lon="-3.90775996479">
        <ele>82</ele>
        <time>2019-01-03T11:03:40Z</time>
      </trkpt>
      <trkpt lat="36.749233472581" lon="-3.907787876517">
        <ele>83.2</ele>
        <time>2019-01-03T11:03:43Z</time>
      </trkpt>
      <trkpt lat="36.74922349812" lon="-3.907790474906">
        <ele>83.6</ele>
        <time>2019-01-03T11:03:44Z</time>
      </trkpt>
      <trkpt lat="36.7492084107" lon="-3.907801958109">
        <ele>84</ele>
        <time>2019-01-03T11:03:46Z</time>
      </trkpt>
      <trkpt lat="36.749203465379" lon="-3.907811010561">
        <ele>84.4</ele>
        <time>2019-01-03T11:03:47Z</time>
      </trkpt>
      <trkpt lat="36.749189299968" lon="-3.907831127121">
        <ele>85.8</ele>
        <time>2019-01-03T11:03:49Z</time>
      </trkpt>
      <trkpt lat="36.749122328587" lon="-3.907857111011">
        <ele>86.8</ele>
        <time>2019-01-03T11:03:55Z</time>
      </trkpt>
      <trkpt lat="36.749080838182" lon="-3.907855769907">
        <ele>87.8</ele>
        <time>2019-01-03T11:03:59Z</time>
      </trkpt>
      <trkpt lat="36.749046723849" lon="-3.907871611698">
        <ele>89</ele>
        <time>2019-01-03T11:04:03Z</time>
      </trkpt>
      <trkpt lat="36.748990565119" lon="-3.907897595588">
        <ele>90.2</ele>
        <time>2019-01-03T11:04:09Z</time>
      </trkpt>
      <trkpt lat="36.74896868836" lon="-3.907913018284">
        <ele>91.4</ele>
        <time>2019-01-03T11:04:12Z</time>
      </trkpt>
      <trkpt lat="36.748949829085" lon="-3.907925004401">
        <ele>92.4</ele>
        <time>2019-01-03T11:04:14Z</time>
      </trkpt>
      <trkpt lat="36.748942453013" lon="-3.907926429324">
        <ele>92.6</ele>
        <time>2019-01-03T11:04:15Z</time>
      </trkpt>
      <trkpt lat="36.748897190753" lon="-3.907937493432">
        <ele>93.6</ele>
        <time>2019-01-03T11:04:20Z</time>
      </trkpt>
      <trkpt lat="36.748836757254" lon="-3.907963393503">
        <ele>95</ele>
        <time>2019-01-03T11:04:25Z</time>
      </trkpt>
      <trkpt lat="36.748798954885" lon="-3.907967249177">
        <ele>96</ele>
        <time>2019-01-03T11:04:29Z</time>
      </trkpt>
      <trkpt lat="36.748738940481" lon="-3.908001531148">
        <ele>97.2</ele>
        <time>2019-01-03T11:04:34Z</time>
      </trkpt>
      <trkpt lat="36.748698539723" lon="-3.908072861117">
        <ele>98.2</ele>
        <time>2019-01-03T11:04:39Z</time>
      </trkpt>
      <trkpt lat="36.748668867797" lon="-3.908122984879">
        <ele>99.4</ele>
        <time>2019-01-03T11:04:43Z</time>
      </trkpt>
      <trkpt lat="36.748625617193" lon="-3.908181071446">
        <ele>100.6</ele>
        <time>2019-01-03T11:04:49Z</time>
      </trkpt>
      <trkpt lat="36.748580103476" lon="-3.908221136928">
        <ele>101.6</ele>
        <time>2019-01-03T11:04:54Z</time>
      </trkpt>
      <trkpt lat="36.748555963604" lon="-3.908285426101">
        <ele>102.6</ele>
        <time>2019-01-03T11:04:59Z</time>
      </trkpt>
      <trkpt lat="36.748506678032" lon="-3.908356588432">
        <ele>103.8</ele>
        <time>2019-01-03T11:05:05Z</time>
      </trkpt>
      <trkpt lat="36.748467869835" lon="-3.908386344177">
        <ele>104.8</ele>
        <time>2019-01-03T11:05:10Z</time>
      </trkpt>
      <trkpt lat="36.748433671683" lon="-3.908406879832">
        <ele>106</ele>
        <time>2019-01-03T11:05:13Z</time>
      </trkpt>
      <trkpt lat="36.748369550148" lon="-3.908463038562">
        <ele>106.8</ele>
        <time>2019-01-03T11:05:19Z</time>
      </trkpt>
      <trkpt lat="36.748362928447" lon="-3.908473013023">
        <ele>107.2</ele>
        <time>2019-01-03T11:05:20Z</time>
      </trkpt>
      <trkpt lat="36.748329484666" lon="-3.908528082106">
        <ele>108.2</ele>
        <time>2019-01-03T11:05:24Z</time>
      </trkpt>
      <trkpt lat="36.748297549627" lon="-3.908625647422">
        <ele>109.2</ele>
        <time>2019-01-03T11:05:30Z</time>
      </trkpt>
      <trkpt lat="36.748267374787" lon="-3.908715585209">
        <ele>110.6</ele>
        <time>2019-01-03T11:05:36Z</time>
      </trkpt>
      <trkpt lat="36.748257567964" lon="-3.908738886891">
        <ele>111.6</ele>
        <time>2019-01-03T11:05:38Z</time>
      </trkpt>
      <trkpt lat="36.748225130011" lon="-3.908819353131">
        <ele>112.6</ele>
        <time>2019-01-03T11:05:44Z</time>
      </trkpt>
      <trkpt lat="36.748186489452" lon="-3.908914403877">
        <ele>113.4</ele>
        <time>2019-01-03T11:05:50Z</time>
      </trkpt>
      <trkpt lat="36.748180454484" lon="-3.90892840165">
        <ele>113.6</ele>
        <time>2019-01-03T11:05:51Z</time>
      </trkpt>
      <trkpt lat="36.74814558578" lon="-3.908991936452">
        <ele>114.8</ele>
        <time>2019-01-03T11:05:56Z</time>
      </trkpt>
      <trkpt lat="36.748075932191" lon="-3.90904239549">
        <ele>115.8</ele>
        <time>2019-01-03T11:06:02Z</time>
      </trkpt>
      <trkpt lat="36.74803578289" lon="-3.909052118494">
        <ele>115.8</ele>
        <time>2019-01-03T11:06:05Z</time>
      </trkpt>
      <trkpt lat="36.74788826145" lon="-3.909083047705">
        <ele>116.6</ele>
        <time>2019-01-03T11:06:11Z</time>
      </trkpt>
      <trkpt lat="36.747724143848" lon="-3.909140128444">
        <ele>116.2</ele>
        <time>2019-01-03T11:06:17Z</time>
      </trkpt>
      <trkpt lat="36.747561786445" lon="-3.909176924985">
        <ele>116.6</ele>
        <time>2019-01-03T11:06:23Z</time>
      </trkpt>
      <trkpt lat="36.74744234437" lon="-3.909198885563">
        <ele>117</ele>
        <time>2019-01-03T11:06:28Z</time>
      </trkpt>
      <trkpt lat="36.747315274766" lon="-3.909227467842">
        <ele>117</ele>
        <time>2019-01-03T11:06:34Z</time>
      </trkpt>
      <trkpt lat="36.747295074387" lon="-3.909237274665">
        <ele>116.6</ele>
        <time>2019-01-03T11:06:35Z</time>
      </trkpt>
      <trkpt lat="36.747264815728" lon="-3.909285051495">
        <ele>115.8</ele>
        <time>2019-01-03T11:06:37Z</time>
      </trkpt>
      <trkpt lat="36.747236820182" lon="-3.909364595726">
        <ele>114.8</ele>
        <time>2019-01-03T11:06:40Z</time>
      </trkpt>
      <trkpt lat="36.747177057235" lon="-3.909392172177">
        <ele>113.8</ele>
        <time>2019-01-03T11:06:43Z</time>
      </trkpt>
      <trkpt lat="36.747043952663" lon="-3.909350681772">
        <ele>112.6</ele>
        <time>2019-01-03T11:06:49Z</time>
      </trkpt>
      <trkpt lat="36.74697211978" lon="-3.909332576868">
        <ele>111.4</ele>
        <time>2019-01-03T11:06:52Z</time>
      </trkpt>
      <trkpt lat="36.746902298553" lon="-3.909330062298">
        <ele>110.2</ele>
        <time>2019-01-03T11:06:55Z</time>
      </trkpt>
      <trkpt lat="36.746825268892" lon="-3.909321177484">
        <ele>109.2</ele>
        <time>2019-01-03T11:06:58Z</time>
      </trkpt>
      <trkpt lat="36.746722842074" lon="-3.909300306553">
        <ele>107.8</ele>
        <time>2019-01-03T11:07:02Z</time>
      </trkpt>
      <trkpt lat="36.746621169627" lon="-3.909302066752">
        <ele>106.6</ele>
        <time>2019-01-03T11:07:06Z</time>
      </trkpt>
      <trkpt lat="36.746524861596" lon="-3.909317489448">
        <ele>105.4</ele>
        <time>2019-01-03T11:07:10Z</time>
      </trkpt>
      <trkpt lat="36.746439366216" lon="-3.909340036759">
        <ele>104.2</ele>
        <time>2019-01-03T11:07:14Z</time>
      </trkpt>
      <trkpt lat="36.746346243307" lon="-3.909310197195">
        <ele>102.8</ele>
        <time>2019-01-03T11:07:18Z</time>
      </trkpt>
      <trkpt lat="36.74630156778" lon="-3.909261079261">
        <ele>101.8</ele>
        <time>2019-01-03T11:07:21Z</time>
      </trkpt>
      <trkpt lat="36.746265274153" lon="-3.909197293002">
        <ele>100.4</ele>
        <time>2019-01-03T11:07:24Z</time>
      </trkpt>
      <trkpt lat="36.746240128453" lon="-3.909124621929">
        <ele>99.4</ele>
        <time>2019-01-03T11:07:27Z</time>
      </trkpt>
      <trkpt lat="36.746175084909" lon="-3.908949188762">
        <ele>98.6</ele>
        <time>2019-01-03T11:07:33Z</time>
      </trkpt>
      <trkpt lat="36.746144155698" lon="-3.908884061399">
        <ele>98.2</ele>
        <time>2019-01-03T11:07:35Z</time>
      </trkpt>
      <trkpt lat="36.746041477423" lon="-3.908699659599">
        <ele>98</ele>
        <time>2019-01-03T11:07:41Z</time>
      </trkpt>
      <trkpt lat="36.745931506895" lon="-3.908516598903">
        <ele>97.2</ele>
        <time>2019-01-03T11:07:47Z</time>
      </trkpt>
      <trkpt lat="36.745869983749" lon="-3.908389948394">
        <ele>96</ele>
        <time>2019-01-03T11:07:51Z</time>
      </trkpt>
      <trkpt lat="36.745856237433" lon="-3.908365892341">
        <ele>97.2</ele>
        <time>2019-01-03T11:07:52Z</time>
      </trkpt>
      <trkpt lat="36.745846346791" lon="-3.908311996724">
        <ele>97</ele>
        <time>2019-01-03T11:07:54Z</time>
      </trkpt>
      <trkpt lat="36.7458640326" lon="-3.908264638989">
        <ele>95.8</ele>
        <time>2019-01-03T11:07:56Z</time>
      </trkpt>
      <trkpt lat="36.745955646767" lon="-3.908129690399">
        <ele>95.8</ele>
        <time>2019-01-03T11:08:02Z</time>
      </trkpt>
      <trkpt lat="36.746004429425" lon="-3.908087948537">
        <ele>94.6</ele>
        <time>2019-01-03T11:08:05Z</time>
      </trkpt>
      <trkpt lat="36.746021863777" lon="-3.908082248845">
        <ele>94.4</ele>
        <time>2019-01-03T11:08:06Z</time>
      </trkpt>
      <trkpt lat="36.746051703341" lon="-3.908054001842">
        <ele>93.4</ele>
        <time>2019-01-03T11:08:08Z</time>
      </trkpt>
      <trkpt lat="36.746066371666" lon="-3.908013433446">
        <ele>92.8</ele>
        <time>2019-01-03T11:08:10Z</time>
      </trkpt>
      <trkpt lat="36.74603250879" lon="-3.907958699639">
        <ele>92.2</ele>
        <time>2019-01-03T11:08:13Z</time>
      </trkpt>
      <trkpt lat="36.745984648141" lon="-3.907922992745">
        <ele>90.8</ele>
        <time>2019-01-03T11:08:16Z</time>
      </trkpt>
      <trkpt lat="36.74594701341" lon="-3.907887956403">
        <ele>89.8</ele>
        <time>2019-01-03T11:08:18Z</time>
      </trkpt>
      <trkpt lat="36.745893285431" lon="-3.907834228424">
        <ele>88.4</ele>
        <time>2019-01-03T11:08:21Z</time>
      </trkpt>
      <trkpt lat="36.745848777542" lon="-3.90780019791">
        <ele>87.2</ele>
        <time>2019-01-03T11:08:23Z</time>
      </trkpt>
      <trkpt lat="36.745741153946" lon="-3.907737752755">
        <ele>85.8</ele>
        <time>2019-01-03T11:08:27Z</time>
      </trkpt>
      <trkpt lat="36.745576198154" lon="-3.907602133613">
        <ele>83.2</ele>
        <time>2019-01-03T11:08:34Z</time>
      </trkpt>
      <trkpt lat="36.745481650322" lon="-3.907561816674">
        <ele>82</ele>
        <time>2019-01-03T11:08:38Z</time>
      </trkpt>
      <trkpt lat="36.74543907027" lon="-3.907570114755">
        <ele>81.6</ele>
        <time>2019-01-03T11:08:40Z</time>
      </trkpt>
      <trkpt lat="36.745400429711" lon="-3.907648736977">
        <ele>80.8</ele>
        <time>2019-01-03T11:08:44Z</time>
      </trkpt>
      <trkpt lat="36.745359023125" lon="-3.907786116318">
        <ele>79.6</ele>
        <time>2019-01-03T11:08:49Z</time>
      </trkpt>
      <trkpt lat="36.745303954042" lon="-3.907892147353">
        <ele>78.4</ele>
        <time>2019-01-03T11:08:53Z</time>
      </trkpt>
      <trkpt lat="36.745240083964" lon="-3.907969847566">
        <ele>77.2</ele>
        <time>2019-01-03T11:08:57Z</time>
      </trkpt>
      <trkpt lat="36.745198425921" lon="-3.908041009897">
        <ele>76.2</ele>
        <time>2019-01-03T11:09:00Z</time>
      </trkpt>
      <trkpt lat="36.745165149778" lon="-3.908114686798">
        <ele>74.8</ele>
        <time>2019-01-03T11:09:03Z</time>
      </trkpt>
      <trkpt lat="36.74513061635" lon="-3.908194733943">
        <ele>73.6</ele>
        <time>2019-01-03T11:09:06Z</time>
      </trkpt>
      <trkpt lat="36.745107398487" lon="-3.908280648418">
        <ele>72.4</ele>
        <time>2019-01-03T11:09:09Z</time>
      </trkpt>
      <trkpt lat="36.745062974417" lon="-3.908381315037">
        <ele>71</ele>
        <time>2019-01-03T11:09:12Z</time>
      </trkpt>
      <trkpt lat="36.744980412702" lon="-3.908503271682">
        <ele>69.8</ele>
        <time>2019-01-03T11:09:16Z</time>
      </trkpt>
      <trkpt lat="36.744854348926" lon="-3.908667473103">
        <ele>69.2</ele>
        <time>2019-01-03T11:09:22Z</time>
      </trkpt>
      <trkpt lat="36.744761645112" lon="-3.908754225768">
        <ele>68.8</ele>
        <time>2019-01-03T11:09:26Z</time>
      </trkpt>
      <trkpt lat="36.744628456721" lon="-3.908865034486">
        <ele>67.8</ele>
        <time>2019-01-03T11:09:32Z</time>
      </trkpt>
      <trkpt lat="36.744611525283" lon="-3.908881546829">
        <ele>67.4</ele>
        <time>2019-01-03T11:09:33Z</time>
      </trkpt>
      <trkpt lat="36.744904388869" lon="-3.909047173173">
        <ele>63</ele>
        <time>2019-01-03T11:10:25Z</time>
      </trkpt>
      <trkpt lat="36.744969600051" lon="-3.909051867037">
        <ele>62.4</ele>
        <time>2019-01-03T11:10:30Z</time>
      </trkpt>
      <trkpt lat="36.745011425732" lon="-3.90906083567">
        <ele>61.6</ele>
        <time>2019-01-03T11:10:32Z</time>
      </trkpt>
      <trkpt lat="36.745091975791" lon="-3.909088831216">
        <ele>60.4</ele>
        <time>2019-01-03T11:10:36Z</time>
      </trkpt>
      <trkpt lat="36.7451683349" lon="-3.90913208182">
        <ele>59.4</ele>
        <time>2019-01-03T11:10:40Z</time>
      </trkpt>
      <trkpt lat="36.745236982661" lon="-3.909160077366">
        <ele>58.4</ele>
        <time>2019-01-03T11:10:43Z</time>
      </trkpt>
      <trkpt lat="36.745260619619" lon="-3.909165357963">
        <ele>58.2</ele>
        <time>2019-01-03T11:10:44Z</time>
      </trkpt>
      <trkpt lat="36.745352904338" lon="-3.909202573599">
        <ele>57.2</ele>
        <time>2019-01-03T11:10:48Z</time>
      </trkpt>
      <trkpt lat="36.745430939827" lon="-3.909253703189">
        <ele>56</ele>
        <time>2019-01-03T11:10:52Z</time>
      </trkpt>
      <trkpt lat="36.745458013364" lon="-3.909305168055">
        <ele>55.2</ele>
        <time>2019-01-03T11:10:54Z</time>
      </trkpt>
      <trkpt lat="36.745456923717" lon="-3.90933240923">
        <ele>54.8</ele>
        <time>2019-01-03T11:10:55Z</time>
      </trkpt>
      <trkpt lat="36.745421971194" lon="-3.909384544648">
        <ele>53.6</ele>
        <time>2019-01-03T11:10:58Z</time>
      </trkpt>
      <trkpt lat="36.745371931251" lon="-3.909334169429">
        <ele>52.4</ele>
        <time>2019-01-03T11:11:01Z</time>
      </trkpt>
      <trkpt lat="36.745292051744" lon="-3.909290751187">
        <ele>51</ele>
        <time>2019-01-03T11:11:05Z</time>
      </trkpt>
      <trkpt lat="36.745224074535" lon="-3.909283626572">
        <ele>50</ele>
        <time>2019-01-03T11:11:08Z</time>
      </trkpt>
      <trkpt lat="36.745157773706" lon="-3.909300893286">
        <ele>48.8</ele>
        <time>2019-01-03T11:11:11Z</time>
      </trkpt>
      <trkpt lat="36.745096669655" lon="-3.909327631547">
        <ele>47.6</ele>
        <time>2019-01-03T11:11:14Z</time>
      </trkpt>
      <trkpt lat="36.745034308319" lon="-3.909359650405">
        <ele>46.4</ele>
        <time>2019-01-03T11:11:17Z</time>
      </trkpt>
      <trkpt lat="36.744974126277" lon="-3.909400470258">
        <ele>44.8</ele>
        <time>2019-01-03T11:11:20Z</time>
      </trkpt>
      <trkpt lat="36.744943029428" lon="-3.90942544832">
        <ele>43.4</ele>
        <time>2019-01-03T11:11:22Z</time>
      </trkpt>
      <trkpt lat="36.744891480743" lon="-3.909472051684">
        <ele>42</ele>
        <time>2019-01-03T11:11:25Z</time>
      </trkpt>
      <trkpt lat="36.744848816872" lon="-3.909519828514">
        <ele>40.8</ele>
        <time>2019-01-03T11:11:28Z</time>
      </trkpt>
      <trkpt lat="36.744804392802" lon="-3.909571628656">
        <ele>39.4</ele>
        <time>2019-01-03T11:11:31Z</time>
      </trkpt>
      <trkpt lat="36.74475426904" lon="-3.909627955024">
        <ele>38</ele>
        <time>2019-01-03T11:11:34Z</time>
      </trkpt>
      <trkpt lat="36.744721831087" lon="-3.909676570044">
        <ele>36.8</ele>
        <time>2019-01-03T11:11:36Z</time>
      </trkpt>
      <trkpt lat="36.744667181099" lon="-3.909736249172">
        <ele>35.4</ele>
        <time>2019-01-03T11:11:39Z</time>
      </trkpt>
      <trkpt lat="36.744640359019" lon="-3.909774386817">
        <ele>34.2</ele>
        <time>2019-01-03T11:11:41Z</time>
      </trkpt>
      <trkpt lat="36.744634659327" lon="-3.909789474237">
        <ele>33.2</ele>
        <time>2019-01-03T11:11:43Z</time>
      </trkpt>
      <trkpt lat="36.744629043454" lon="-3.909792491721">
        <ele>32.4</ele>
        <time>2019-01-03T11:11:45Z</time>
      </trkpt>
      <trkpt lat="36.744629630187" lon="-3.909794335739">
        <ele>32</ele>
        <time>2019-01-03T11:11:46Z</time>
      </trkpt>
      <trkpt lat="36.744636503345" lon="-3.909816547774">
        <ele>31.6</ele>
        <time>2019-01-03T11:11:52Z</time>
      </trkpt>
      <trkpt lat="36.744546146463" lon="-3.909928529958">
        <ele>31</ele>
        <time>2019-01-03T11:11:58Z</time>
      </trkpt>
      <trkpt lat="36.744530723767" lon="-3.909948897975">
        <ele>30.6</ele>
        <time>2019-01-03T11:11:59Z</time>
      </trkpt>
      <trkpt lat="36.744484539498" lon="-3.910004302334">
        <ele>29.4</ele>
        <time>2019-01-03T11:12:02Z</time>
      </trkpt>
      <trkpt lat="36.744442294722" lon="-3.910066496032">
        <ele>28.2</ele>
        <time>2019-01-03T11:12:05Z</time>
      </trkpt>
      <trkpt lat="36.744412371339" lon="-3.910107567342">
        <ele>26.8</ele>
        <time>2019-01-03T11:12:07Z</time>
      </trkpt>
      <trkpt lat="36.74438211268" lon="-3.910145872625">
        <ele>25.6</ele>
        <time>2019-01-03T11:12:09Z</time>
      </trkpt>
      <trkpt lat="36.744342550112" lon="-3.91018317208">
        <ele>24.4</ele>
        <time>2019-01-03T11:12:11Z</time>
      </trkpt>
      <trkpt lat="36.744303658096" lon="-3.910220722992">
        <ele>23</ele>
        <time>2019-01-03T11:12:13Z</time>
      </trkpt>
      <trkpt lat="36.744255965085" lon="-3.910256010791">
        <ele>22</ele>
        <time>2019-01-03T11:12:15Z</time>
      </trkpt>
      <trkpt lat="36.744167452221" lon="-3.910290544219">
        <ele>20.8</ele>
        <time>2019-01-03T11:12:18Z</time>
      </trkpt>
      <trkpt lat="36.744088159447" lon="-3.91032817895">
        <ele>19.8</ele>
        <time>2019-01-03T11:12:21Z</time>
      </trkpt>
      <trkpt lat="36.744019092591" lon="-3.910360281627">
        <ele>18.6</ele>
        <time>2019-01-03T11:12:24Z</time>
      </trkpt>
      <trkpt lat="36.743862351061" lon="-3.910394898874">
        <ele>18.2</ele>
        <time>2019-01-03T11:12:30Z</time>
      </trkpt>
      <trkpt lat="36.743752548171" lon="-3.910443094799">
        <ele>17.4</ele>
        <time>2019-01-03T11:12:34Z</time>
      </trkpt>
      <trkpt lat="36.743702759685" lon="-3.910463798092">
        <ele>16.4</ele>
        <time>2019-01-03T11:12:36Z</time>
      </trkpt>
      <trkpt lat="36.743627238766" lon="-3.910494475846">
        <ele>15.4</ele>
        <time>2019-01-03T11:12:39Z</time>
      </trkpt>
      <trkpt lat="36.743561357032" lon="-3.910530266559">
        <ele>13.8</ele>
        <time>2019-01-03T11:12:42Z</time>
      </trkpt>
      <trkpt lat="36.743480052602" lon="-3.910580977054">
        <ele>12.6</ele>
        <time>2019-01-03T11:12:46Z</time>
      </trkpt>
      <trkpt lat="36.743417104533" lon="-3.910623724744">
        <ele>11</ele>
        <time>2019-01-03T11:12:49Z</time>
      </trkpt>
      <trkpt lat="36.743369662979" lon="-3.910654570136">
        <ele>10</ele>
        <time>2019-01-03T11:12:51Z</time>
      </trkpt>
      <trkpt lat="36.743314845353" lon="-3.910680805483">
        <ele>8.8</ele>
        <time>2019-01-03T11:12:53Z</time>
      </trkpt>
      <trkpt lat="36.743262961392" lon="-3.910703352794">
        <ele>7.6</ele>
        <time>2019-01-03T11:12:55Z</time>
      </trkpt>
      <trkpt lat="36.743188278663" lon="-3.910711315599">
        <ele>6.2</ele>
        <time>2019-01-03T11:12:58Z</time>
      </trkpt>
      <trkpt lat="36.743118205979" lon="-3.910700502948">
        <ele>5</ele>
        <time>2019-01-03T11:13:01Z</time>
      </trkpt>
      <trkpt lat="36.743072440805" lon="-3.91068943884">
        <ele>3.6</ele>
        <time>2019-01-03T11:13:03Z</time>
      </trkpt>
      <trkpt lat="36.743000440284" lon="-3.910679632017">
        <ele>2.4</ele>
        <time>2019-01-03T11:13:06Z</time>
      </trkpt>
      <trkpt lat="36.742946209391" lon="-3.910670831022">
        <ele>1</ele>
        <time>2019-01-03T11:13:09Z</time>
      </trkpt>
      <trkpt lat="36.742817044312" lon="-3.910584245995">
        <ele>0.6</ele>
        <time>2019-01-03T11:13:15Z</time>
      </trkpt>
      <trkpt lat="36.742751330216" lon="-3.910421469497">
        <ele>0.6</ele>
        <time>2019-01-03T11:13:21Z</time>
      </trkpt>
      <trkpt lat="36.742738002995" lon="-3.910212005816">
        <ele>1.2</ele>
        <time>2019-01-03T11:13:27Z</time>
      </trkpt>
      <trkpt lat="36.742736661891" lon="-3.910142855141">
        <ele>2.2</ele>
        <time>2019-01-03T11:13:29Z</time>
      </trkpt>
      <trkpt lat="36.742750408207" lon="-3.909950406717">
        <ele>3.4</ele>
        <time>2019-01-03T11:13:35Z</time>
      </trkpt>
      <trkpt lat="36.742770524767" lon="-3.909745385443">
        <ele>4.4</ele>
        <time>2019-01-03T11:13:41Z</time>
      </trkpt>
      <trkpt lat="36.742778990486" lon="-3.909575903425">
        <ele>4.6</ele>
        <time>2019-01-03T11:13:46Z</time>
      </trkpt>
      <trkpt lat="36.742795838105" lon="-3.909373983454">
        <ele>4.6</ele>
        <time>2019-01-03T11:13:52Z</time>
      </trkpt>
      <trkpt lat="36.742815451751" lon="-3.909208189472">
        <ele>5.6</ele>
        <time>2019-01-03T11:13:57Z</time>
      </trkpt>
      <trkpt lat="36.742855936328" lon="-3.909017082152">
        <ele>6.2</ele>
        <time>2019-01-03T11:14:03Z</time>
      </trkpt>
      <trkpt lat="36.742882087856" lon="-3.908845504659">
        <ele>7</ele>
        <time>2019-01-03T11:14:08Z</time>
      </trkpt>
      <trkpt lat="36.742931541066" lon="-3.908671161139">
        <ele>6.6</ele>
        <time>2019-01-03T11:14:14Z</time>
      </trkpt>
      <trkpt lat="36.742988286529" lon="-3.908494722144">
        <ele>6.8</ele>
        <time>2019-01-03T11:14:20Z</time>
      </trkpt>
      <trkpt lat="36.74301586298" lon="-3.908408053298">
        <ele>7.4</ele>
        <time>2019-01-03T11:14:23Z</time>
      </trkpt>
      <trkpt lat="36.7430560961" lon="-3.908243181325">
        <ele>8.2</ele>
        <time>2019-01-03T11:14:28Z</time>
      </trkpt>
      <trkpt lat="36.743045534906" lon="-3.90804914034">
        <ele>8.4</ele>
        <time>2019-01-03T11:14:34Z</time>
      </trkpt>
      <trkpt lat="36.743009325098" lon="-3.907844789618">
        <ele>8.2</ele>
        <time>2019-01-03T11:14:40Z</time>
      </trkpt>
      <trkpt lat="36.742974204937" lon="-3.907624010372">
        <ele>8.6</ele>
        <time>2019-01-03T11:14:46Z</time>
      </trkpt>
      <trkpt lat="36.742965906856" lon="-3.907498784786">
        <ele>9.4</ele>
        <time>2019-01-03T11:14:50Z</time>
      </trkpt>
      <trkpt lat="36.742956938223" lon="-3.907323770714">
        <ele>10.4</ele>
        <time>2019-01-03T11:14:55Z</time>
      </trkpt>
      <trkpt lat="36.743021059758" lon="-3.907153282868">
        <ele>10.4</ele>
        <time>2019-01-03T11:15:01Z</time>
      </trkpt>
      <trkpt lat="36.743124157128" lon="-3.907010036197">
        <ele>10.8</ele>
        <time>2019-01-03T11:15:07Z</time>
      </trkpt>
      <trkpt lat="36.743256172053" lon="-3.906891767588">
        <ele>10.4</ele>
        <time>2019-01-03T11:15:13Z</time>
      </trkpt>
      <trkpt lat="36.7433913721" lon="-3.90677676792">
        <ele>10.4</ele>
        <time>2019-01-03T11:15:19Z</time>
      </trkpt>
      <trkpt lat="36.743470832512" lon="-3.906605609522">
        <ele>10.6</ele>
        <time>2019-01-03T11:15:25Z</time>
      </trkpt>
      <trkpt lat="36.743496481126" lon="-3.906241415967">
        <ele>10.6</ele>
        <time>2019-01-03T11:15:35Z</time>
      </trkpt>
      <trkpt lat="36.743468569399" lon="-3.906009656432">
        <ele>10.6</ele>
        <time>2019-01-03T11:15:41Z</time>
      </trkpt>
      <trkpt lat="36.743439568025" lon="-3.905784602417">
        <ele>10.4</ele>
        <time>2019-01-03T11:15:47Z</time>
      </trkpt>
      <trkpt lat="36.74340729771" lon="-3.90556558337">
        <ele>10</ele>
        <time>2019-01-03T11:15:53Z</time>
      </trkpt>
      <trkpt lat="36.743401262742" lon="-3.905376571525">
        <ele>10.2</ele>
        <time>2019-01-03T11:15:59Z</time>
      </trkpt>
      <trkpt lat="36.743437807826" lon="-3.905195187209">
        <ele>9.8</ele>
        <time>2019-01-03T11:16:05Z</time>
      </trkpt>
      <trkpt lat="36.743449458667" lon="-3.905132574416">
        <ele>9.4</ele>
        <time>2019-01-03T11:16:07Z</time>
      </trkpt>
      <trkpt lat="36.743490194701" lon="-3.904926547314">
        <ele>9.4</ele>
        <time>2019-01-03T11:16:13Z</time>
      </trkpt>
      <trkpt lat="36.743552053123" lon="-3.904725297895">
        <ele>9.2</ele>
        <time>2019-01-03T11:16:19Z</time>
      </trkpt>
      <trkpt lat="36.743602428342" lon="-3.904541650466">
        <ele>8.4</ele>
        <time>2019-01-03T11:16:25Z</time>
      </trkpt>
      <trkpt lat="36.743623886006" lon="-3.904479624406">
        <ele>8.2</ele>
        <time>2019-01-03T11:16:27Z</time>
      </trkpt>
      <trkpt lat="36.743687001713" lon="-3.904291366932">
        <ele>7.4</ele>
        <time>2019-01-03T11:16:33Z</time>
      </trkpt>
      <trkpt lat="36.743695467432" lon="-3.904259096617">
        <ele>7.4</ele>
        <time>2019-01-03T11:16:34Z</time>
      </trkpt>
      <trkpt lat="36.743720613132" lon="-3.904189359209">
        <ele>7.2</ele>
        <time>2019-01-03T11:16:36Z</time>
      </trkpt>
      <trkpt lat="36.743806779064" lon="-3.904020966838">
        <ele>6.2</ele>
        <time>2019-01-03T11:16:41Z</time>
      </trkpt>
      <trkpt lat="36.743915743764" lon="-3.903838325237">
        <ele>5.4</ele>
        <time>2019-01-03T11:16:47Z</time>
      </trkpt>
      <trkpt lat="36.743965280793" lon="-3.903741262835">
        <ele>5</ele>
        <time>2019-01-03T11:16:50Z</time>
      </trkpt>
      <trkpt lat="36.744061253548" lon="-3.903625424977">
        <ele>4</ele>
        <time>2019-01-03T11:16:55Z</time>
      </trkpt>
      <trkpt lat="36.744185389487" lon="-3.903558369777">
        <ele>3.8</ele>
        <time>2019-01-03T11:17:01Z</time>
      </trkpt>
      <trkpt lat="36.744302316992" lon="-3.90354973642">
        <ele>3.8</ele>
        <time>2019-01-03T11:17:06Z</time>
      </trkpt>
      <trkpt lat="36.744396697186" lon="-3.903664652269">
        <ele>3</ele>
        <time>2019-01-03T11:17:11Z</time>
      </trkpt>
      <trkpt lat="36.744332324194" lon="-3.903815861745">
        <ele>4.2</ele>
        <time>2019-01-03T11:17:17Z</time>
      </trkpt>
      <trkpt lat="36.744322852647" lon="-3.903894735424">
        <ele>4.4</ele>
        <time>2019-01-03T11:17:20Z</time>
      </trkpt>
      <trkpt lat="36.744349255632" lon="-3.903949804507">
        <ele>4.4</ele>
        <time>2019-01-03T11:17:22Z</time>
      </trkpt>
      <trkpt lat="36.744405582" lon="-3.903908565559">
        <ele>5.2</ele>
        <time>2019-01-03T11:17:25Z</time>
      </trkpt>
      <trkpt lat="36.744492921398" lon="-3.90374587288">
        <ele>3.8</ele>
        <time>2019-01-03T11:17:31Z</time>
      </trkpt>
      <trkpt lat="36.744522341867" lon="-3.903694910928">
        <ele>2.8</ele>
        <time>2019-01-03T11:17:33Z</time>
      </trkpt>
      <trkpt lat="36.744596102587" lon="-3.903595920689">
        <ele>1.8</ele>
        <time>2019-01-03T11:17:37Z</time>
      </trkpt>
      <trkpt lat="36.744660056484" lon="-3.903519058666">
        <ele>0.6</ele>
        <time>2019-01-03T11:17:40Z</time>
      </trkpt>
      <trkpt lat="36.744738511068" lon="-3.903403472265">
        <ele>0</ele>
        <time>2019-01-03T11:17:44Z</time>
      </trkpt>
      <trkpt lat="36.744791819952" lon="-3.903305236397">
        <ele>0</ele>
        <time>2019-01-03T11:17:47Z</time>
      </trkpt>
      <trkpt lat="36.744905478516" lon="-3.903107675014">
        <ele>0</ele>
        <time>2019-01-03T11:17:53Z</time>
      </trkpt>
      <trkpt lat="36.744989129878" lon="-3.902909275441">
        <ele>0</ele>
        <time>2019-01-03T11:17:59Z</time>
      </trkpt>
      <trkpt lat="36.7450677521" lon="-3.902707020194">
        <ele>0</ele>
        <time>2019-01-03T11:18:05Z</time>
      </trkpt>
      <trkpt lat="36.745115780387" lon="-3.902502418015">
        <ele>0</ele>
        <time>2019-01-03T11:18:11Z</time>
      </trkpt>
      <trkpt lat="36.745122988821" lon="-3.902467046397">
        <ele>0</ele>
        <time>2019-01-03T11:18:12Z</time>
      </trkpt>
      <trkpt lat="36.74517839318" lon="-3.902271915765">
        <ele>0</ele>
        <time>2019-01-03T11:18:18Z</time>
      </trkpt>
      <trkpt lat="36.74523706648" lon="-3.902091453458">
        <ele>0</ele>
        <time>2019-01-03T11:18:24Z</time>
      </trkpt>
      <trkpt lat="36.745295320685" lon="-3.901923899277">
        <ele>0</ele>
        <time>2019-01-03T11:18:30Z</time>
      </trkpt>
      <trkpt lat="36.745355670365" lon="-3.901681578548">
        <ele>0</ele>
        <time>2019-01-03T11:18:36Z</time>
      </trkpt>
      <trkpt lat="36.745515932293" lon="-3.901609661846">
        <ele>0</ele>
        <time>2019-01-03T11:18:42Z</time>
      </trkpt>
      <trkpt lat="36.745696059324" lon="-3.901672861372">
        <ele>0</ele>
        <time>2019-01-03T11:18:48Z</time>
      </trkpt>
      <trkpt lat="36.745867888274" lon="-3.901763302073">
        <ele>0</ele>
        <time>2019-01-03T11:18:54Z</time>
      </trkpt>
      <trkpt lat="36.74602664146" lon="-3.901892886247">
        <ele>0</ele>
        <time>2019-01-03T11:19:00Z</time>
      </trkpt>
      <trkpt lat="36.746161254774" lon="-3.902032780158">
        <ele>0</ele>
        <time>2019-01-03T11:19:06Z</time>
      </trkpt>
      <trkpt lat="36.746223783748" lon="-3.902095392951">
        <ele>0</ele>
        <time>2019-01-03T11:19:09Z</time>
      </trkpt>
      <trkpt lat="36.74636024108" lon="-3.902231934102">
        <ele>0</ele>
        <time>2019-01-03T11:19:15Z</time>
      </trkpt>
      <trkpt lat="36.746463925183" lon="-3.902359758077">
        <ele>0.6</ele>
        <time>2019-01-03T11:19:20Z</time>
      </trkpt>
      <trkpt lat="36.746565178535" lon="-3.902539633651">
        <ele>1.2</ele>
        <time>2019-01-03T11:19:26Z</time>
      </trkpt>
      <trkpt lat="36.746616559582" lon="-3.902636696053">
        <ele>2</ele>
        <time>2019-01-03T11:19:30Z</time>
      </trkpt>
      <trkpt lat="36.746614296469" lon="-3.902655974423">
        <ele>2.2</ele>
        <time>2019-01-03T11:19:31Z</time>
      </trkpt>
      <trkpt lat="36.746942699311" lon="-3.903469521637">
        <ele>6</ele>
        <time>2019-01-03T11:20:24Z</time>
      </trkpt>
      <trkpt lat="36.747072618761" lon="-3.903579492165">
        <ele>7.2</ele>
        <time>2019-01-03T11:20:30Z</time>
      </trkpt>
      <trkpt lat="36.747241514046" lon="-3.903574798301">
        <ele>8.4</ele>
        <time>2019-01-03T11:20:35Z</time>
      </trkpt>
      <trkpt lat="36.747320974458" lon="-3.903573708654">
        <ele>9.4</ele>
        <time>2019-01-03T11:20:37Z</time>
      </trkpt>
      <trkpt lat="36.747394148445" lon="-3.903577145233">
        <ele>10.8</ele>
        <time>2019-01-03T11:20:39Z</time>
      </trkpt>
      <trkpt lat="36.747461455102" lon="-3.903586281504">
        <ele>12</ele>
        <time>2019-01-03T11:20:41Z</time>
      </trkpt>
      <trkpt lat="36.747524319352" lon="-3.903600949829">
        <ele>13</ele>
        <time>2019-01-03T11:20:43Z</time>
      </trkpt>
      <trkpt lat="36.747616939347" lon="-3.903623748597">
        <ele>14.4</ele>
        <time>2019-01-03T11:20:46Z</time>
      </trkpt>
      <trkpt lat="36.747674606819" lon="-3.903638752198">
        <ele>15.6</ele>
        <time>2019-01-03T11:20:48Z</time>
      </trkpt>
      <trkpt lat="36.747709056428" lon="-3.903626598443">
        <ele>16.2</ele>
        <time>2019-01-03T11:20:49Z</time>
      </trkpt>
    </trkseg>
  </trk>
</gpx>